sensor_id;sensor_type;location;lat;lon;timestamp;P1;durP1;ratioP1;P2;durP2;ratioP2
846;SDS011;410;48.954;9.474;2023-08-06T00:00:07;2.63;;;2.00;;
846;SDS011;410;48.954;9.474;2023-08-06T00:02:11;3.07;;;2.30;;
846;SDS011;410;48.954;9.474;2023-08-06T00:04:15;3.07;;;2.40;;
846;SDS011;410;48.954;9.474;2023-08-06T00:06:20;2.40;;;2.00;;
846;SDS011;410;48.954;9.474;2023-08-06T00:08:23;3.10;;;2.10;;
846;SDS011;410;48.954;9.474;2023-08-06T00:10:26;2.27;;;2.07;;
846;SDS011;410;48.954;9.474;2023-08-06T00:12:30;2.87;;;2.10;;
846;SDS011;410;48.954;9.474;2023-08-06T00:14:32;3.40;;;2.77;;
846;SDS011;410;48.954;9.474;2023-08-06T00:16:36;2.50;;;2.03;;
846;SDS011;410;48.954;9.474;2023-08-06T00:18:39;2.40;;;2.00;;
846;SDS011;410;48.954;9.474;2023-08-06T00:20:43;4.00;;;2.17;;
846;SDS011;410;48.954;9.474;2023-08-06T00:22:50;2.67;;;2.03;;
846;SDS011;410;48.954;9.474;2023-08-06T00:24:56;3.00;;;2.23;;
846;SDS011;410;48.954;9.474;2023-08-06T00:27:01;2.90;;;2.00;;
846;SDS011;410;48.954;9.474;2023-08-06T00:29:05;2.60;;;2.20;;
846;SDS011;410;48.954;9.474;2023-08-06T00:31:09;2.20;;;1.90;;
846;SDS011;410;48.954;9.474;2023-08-06T00:33:12;3.13;;;2.10;;
846;SDS011;410;48.954;9.474;2023-08-06T00:35:16;2.47;;;2.07;;
846;SDS011;410;48.954;9.474;2023-08-06T00:37:20;2.73;;;2.10;;
846;SDS011;410;48.954;9.474;2023-08-06T00:39:28;3.30;;;2.00;;
846;SDS011;410;48.954;9.474;2023-08-06T00:41:31;2.63;;;1.93;;
846;SDS011;410;48.954;9.474;2023-08-06T00:43:37;2.47;;;1.90;;
846;SDS011;410;48.954;9.474;2023-08-06T00:45:40;3.00;;;2.13;;
846;SDS011;410;48.954;9.474;2023-08-06T00:47:45;2.53;;;2.00;;
846;SDS011;410;48.954;9.474;2023-08-06T00:49:57;2.40;;;1.73;;
846;SDS011;410;48.954;9.474;2023-08-06T00:52:08;2.50;;;2.10;;
846;SDS011;410;48.954;9.474;2023-08-06T00:54:15;3.00;;;2.20;;
846;SDS011;410;48.954;9.474;2023-08-06T00:56:23;3.20;;;2.40;;
846;SDS011;410;48.954;9.474;2023-08-06T00:58:27;2.87;;;2.20;;
846;SDS011;410;48.954;9.474;2023-08-06T01:00:30;2.87;;;1.90;;
846;SDS011;410;48.954;9.474;2023-08-06T01:02:34;3.13;;;2.83;;
846;SDS011;410;48.954;9.474;2023-08-06T01:04:37;3.77;;;2.50;;
846;SDS011;410;48.954;9.474;2023-08-06T01:09:05;3.10;;;2.50;;
846;SDS011;410;48.954;9.474;2023-08-06T01:11:26;2.90;;;2.43;;
846;SDS011;410;48.954;9.474;2023-08-06T01:13:38;3.10;;;2.50;;
846;SDS011;410;48.954;9.474;2023-08-06T01:15:46;2.90;;;2.40;;
846;SDS011;410;48.954;9.474;2023-08-06T01:17:53;2.80;;;2.37;;
846;SDS011;410;48.954;9.474;2023-08-06T01:19:57;3.20;;;2.70;;
846;SDS011;410;48.954;9.474;2023-08-06T01:22:03;3.00;;;2.30;;
846;SDS011;410;48.954;9.474;2023-08-06T01:24:08;3.60;;;2.50;;
846;SDS011;410;48.954;9.474;2023-08-06T01:26:14;3.10;;;2.50;;
846;SDS011;410;48.954;9.474;2023-08-06T01:28:26;2.80;;;2.47;;
846;SDS011;410;48.954;9.474;2023-08-06T01:30:35;4.03;;;2.70;;
846;SDS011;410;48.954;9.474;2023-08-06T01:32:43;3.40;;;2.63;;
846;SDS011;410;48.954;9.474;2023-08-06T01:34:50;4.43;;;2.90;;
846;SDS011;410;48.954;9.474;2023-08-06T01:36:58;2.87;;;2.53;;
846;SDS011;410;48.954;9.474;2023-08-06T01:39:08;3.67;;;2.00;;
846;SDS011;410;48.954;9.474;2023-08-06T01:41:10;3.50;;;2.40;;
846;SDS011;410;48.954;9.474;2023-08-06T01:43:25;3.90;;;2.53;;
846;SDS011;410;48.954;9.474;2023-08-06T01:45:30;2.87;;;2.47;;
846;SDS011;410;48.954;9.474;2023-08-06T01:47:37;2.53;;;2.00;;
846;SDS011;410;48.954;9.474;2023-08-06T01:49:48;4.10;;;2.50;;
846;SDS011;410;48.954;9.474;2023-08-06T01:51:53;2.97;;;2.30;;
846;SDS011;410;48.954;9.474;2023-08-06T01:54:01;3.30;;;2.77;;
846;SDS011;410;48.954;9.474;2023-08-06T01:56:18;4.33;;;2.90;;
846;SDS011;410;48.954;9.474;2023-08-06T01:58:22;2.90;;;2.33;;
846;SDS011;410;48.954;9.474;2023-08-06T02:00:26;5.30;;;2.97;;
846;SDS011;410;48.954;9.474;2023-08-06T02:02:31;3.90;;;2.63;;
846;SDS011;410;48.954;9.474;2023-08-06T02:04:36;3.10;;;2.50;;
846;SDS011;410;48.954;9.474;2023-08-06T02:06:40;3.13;;;2.67;;
846;SDS011;410;48.954;9.474;2023-08-06T02:08:44;3.37;;;2.80;;
846;SDS011;410;48.954;9.474;2023-08-06T02:10:50;3.00;;;2.50;;
846;SDS011;410;48.954;9.474;2023-08-06T02:12:54;3.70;;;2.90;;
846;SDS011;410;48.954;9.474;2023-08-06T02:14:57;4.60;;;2.90;;
846;SDS011;410;48.954;9.474;2023-08-06T02:17:04;7.87;;;3.27;;
846;SDS011;410;48.954;9.474;2023-08-06T02:19:25;3.90;;;2.90;;
846;SDS011;410;48.954;9.474;2023-08-06T02:21:30;4.03;;;3.20;;
846;SDS011;410;48.954;9.474;2023-08-06T02:23:35;3.83;;;3.33;;
846;SDS011;410;48.954;9.474;2023-08-06T02:25:44;4.27;;;3.63;;
846;SDS011;410;48.954;9.474;2023-08-06T02:27:50;8.63;;;3.10;;
846;SDS011;410;48.954;9.474;2023-08-06T02:30:00;4.10;;;3.00;;
846;SDS011;410;48.954;9.474;2023-08-06T02:32:09;3.97;;;3.13;;
846;SDS011;410;48.954;9.474;2023-08-06T02:34:15;3.93;;;3.47;;
846;SDS011;410;48.954;9.474;2023-08-06T02:36:25;4.57;;;3.50;;
846;SDS011;410;48.954;9.474;2023-08-06T02:38:36;3.50;;;2.87;;
846;SDS011;410;48.954;9.474;2023-08-06T02:40:42;4.50;;;3.23;;
846;SDS011;410;48.954;9.474;2023-08-06T02:42:50;4.33;;;3.83;;
846;SDS011;410;48.954;9.474;2023-08-06T02:44:59;4.10;;;3.63;;
846;SDS011;410;48.954;9.474;2023-08-06T02:47:05;5.27;;;4.10;;
846;SDS011;410;48.954;9.474;2023-08-06T02:49:22;4.70;;;3.80;;
846;SDS011;410;48.954;9.474;2023-08-06T02:51:27;5.00;;;3.43;;
846;SDS011;410;48.954;9.474;2023-08-06T02:53:32;4.80;;;4.20;;
846;SDS011;410;48.954;9.474;2023-08-06T02:55:44;4.70;;;4.20;;
846;SDS011;410;48.954;9.474;2023-08-06T02:57:56;4.30;;;3.53;;
846;SDS011;410;48.954;9.474;2023-08-06T03:00:02;4.57;;;3.70;;
846;SDS011;410;48.954;9.474;2023-08-06T03:02:06;4.27;;;3.87;;
846;SDS011;410;48.954;9.474;2023-08-06T03:04:23;6.17;;;4.20;;
846;SDS011;410;48.954;9.474;2023-08-06T03:06:27;4.77;;;3.67;;
846;SDS011;410;48.954;9.474;2023-08-06T03:08:32;5.43;;;4.20;;
846;SDS011;410;48.954;9.474;2023-08-06T03:10:35;5.20;;;3.47;;
846;SDS011;410;48.954;9.474;2023-08-06T03:12:40;4.37;;;3.50;;
846;SDS011;410;48.954;9.474;2023-08-06T03:14:45;6.33;;;3.60;;
846;SDS011;410;48.954;9.474;2023-08-06T03:16:49;4.70;;;3.70;;
846;SDS011;410;48.954;9.474;2023-08-06T03:18:54;4.77;;;3.57;;
846;SDS011;410;48.954;9.474;2023-08-06T03:20:57;4.57;;;3.80;;
846;SDS011;410;48.954;9.474;2023-08-06T03:23:09;3.90;;;3.50;;
846;SDS011;410;48.954;9.474;2023-08-06T03:25:14;4.43;;;3.80;;
846;SDS011;410;48.954;9.474;2023-08-06T03:27:21;4.73;;;4.23;;
846;SDS011;410;48.954;9.474;2023-08-06T03:29:31;4.30;;;3.57;;
846;SDS011;410;48.954;9.474;2023-08-06T03:31:39;4.93;;;3.70;;
846;SDS011;410;48.954;9.474;2023-08-06T03:33:48;4.93;;;3.90;;
846;SDS011;410;48.954;9.474;2023-08-06T03:36:05;4.10;;;3.10;;
846;SDS011;410;48.954;9.474;2023-08-06T03:38:11;4.27;;;3.43;;
846;SDS011;410;48.954;9.474;2023-08-06T03:40:18;4.47;;;3.10;;
846;SDS011;410;48.954;9.474;2023-08-06T03:42:41;3.47;;;3.00;;
846;SDS011;410;48.954;9.474;2023-08-06T03:44:51;4.70;;;2.93;;
846;SDS011;410;48.954;9.474;2023-08-06T03:47:03;3.90;;;3.13;;
846;SDS011;410;48.954;9.474;2023-08-06T03:49:11;4.60;;;3.10;;
846;SDS011;410;48.954;9.474;2023-08-06T03:51:20;3.50;;;2.93;;
846;SDS011;410;48.954;9.474;2023-08-06T03:53:25;4.57;;;2.80;;
846;SDS011;410;48.954;9.474;2023-08-06T03:55:32;2.80;;;2.30;;
846;SDS011;410;48.954;9.474;2023-08-06T03:57:41;3.73;;;2.13;;
846;SDS011;410;48.954;9.474;2023-08-06T03:59:45;3.60;;;2.70;;
846;SDS011;410;48.954;9.474;2023-08-06T04:02:16;4.90;;;2.80;;
846;SDS011;410;48.954;9.474;2023-08-06T04:04:21;3.53;;;2.50;;
846;SDS011;410;48.954;9.474;2023-08-06T04:06:44;3.73;;;2.20;;
846;SDS011;410;48.954;9.474;2023-08-06T04:08:48;4.87;;;2.50;;
846;SDS011;410;48.954;9.474;2023-08-06T04:11:11;2.93;;;2.33;;
846;SDS011;410;48.954;9.474;2023-08-06T04:13:36;2.90;;;2.40;;
846;SDS011;410;48.954;9.474;2023-08-06T04:16:00;3.10;;;2.37;;
846;SDS011;410;48.954;9.474;2023-08-06T04:18:25;3.87;;;2.67;;
846;SDS011;410;48.954;9.474;2023-08-06T04:20:31;2.67;;;1.83;;
846;SDS011;410;48.954;9.474;2023-08-06T04:22:34;2.77;;;2.10;;
846;SDS011;410;48.954;9.474;2023-08-06T04:24:38;3.30;;;2.30;;
846;SDS011;410;48.954;9.474;2023-08-06T04:26:41;2.73;;;1.90;;
846;SDS011;410;48.954;9.474;2023-08-06T04:28:46;4.40;;;2.77;;
846;SDS011;410;48.954;9.474;2023-08-06T04:30:48;4.30;;;2.70;;
846;SDS011;410;48.954;9.474;2023-08-06T04:32:52;2.90;;;2.17;;
846;SDS011;410;48.954;9.474;2023-08-06T04:34:55;3.00;;;2.00;;
846;SDS011;410;48.954;9.474;2023-08-06T04:37:01;3.10;;;2.33;;
846;SDS011;410;48.954;9.474;2023-08-06T04:39:06;3.23;;;2.10;;
846;SDS011;410;48.954;9.474;2023-08-06T04:41:14;2.97;;;1.97;;
846;SDS011;410;48.954;9.474;2023-08-06T04:43:25;2.77;;;2.07;;
846;SDS011;410;48.954;9.474;2023-08-06T04:45:28;2.70;;;1.90;;
846;SDS011;410;48.954;9.474;2023-08-06T04:47:35;2.73;;;2.20;;
846;SDS011;410;48.954;9.474;2023-08-06T04:49:41;4.00;;;2.30;;
846;SDS011;410;48.954;9.474;2023-08-06T04:51:44;3.80;;;2.27;;
846;SDS011;410;48.954;9.474;2023-08-06T04:53:52;3.50;;;2.20;;
846;SDS011;410;48.954;9.474;2023-08-06T04:55:57;3.67;;;2.47;;
846;SDS011;410;48.954;9.474;2023-08-06T04:58:05;3.40;;;2.00;;
846;SDS011;410;48.954;9.474;2023-08-06T05:00:13;3.57;;;1.90;;
846;SDS011;410;48.954;9.474;2023-08-06T05:02:17;5.13;;;2.10;;
846;SDS011;410;48.954;9.474;2023-08-06T05:04:30;3.07;;;2.00;;
846;SDS011;410;48.954;9.474;2023-08-06T05:06:34;2.90;;;2.10;;
846;SDS011;410;48.954;9.474;2023-08-06T05:08:45;3.03;;;2.30;;
846;SDS011;410;48.954;9.474;2023-08-06T05:10:50;3.20;;;2.40;;
846;SDS011;410;48.954;9.474;2023-08-06T05:13:13;3.20;;;1.60;;
846;SDS011;410;48.954;9.474;2023-08-06T05:15:16;2.90;;;1.97;;
846;SDS011;410;48.954;9.474;2023-08-06T05:17:38;3.03;;;2.10;;
846;SDS011;410;48.954;9.474;2023-08-06T05:19:42;3.07;;;2.03;;
846;SDS011;410;48.954;9.474;2023-08-06T05:21:47;3.33;;;2.00;;
846;SDS011;410;48.954;9.474;2023-08-06T05:23:50;4.90;;;2.33;;
846;SDS011;410;48.954;9.474;2023-08-06T05:25:55;3.57;;;2.37;;
846;SDS011;410;48.954;9.474;2023-08-06T05:27:57;4.13;;;2.20;;
846;SDS011;410;48.954;9.474;2023-08-06T05:30:01;3.20;;;2.30;;
846;SDS011;410;48.954;9.474;2023-08-06T05:32:05;3.00;;;2.20;;
846;SDS011;410;48.954;9.474;2023-08-06T05:34:09;2.73;;;1.80;;
846;SDS011;410;48.954;9.474;2023-08-06T05:36:12;3.03;;;2.10;;
846;SDS011;410;48.954;9.474;2023-08-06T05:38:16;3.10;;;2.03;;
846;SDS011;410;48.954;9.474;2023-08-06T05:40:20;5.70;;;1.90;;
846;SDS011;410;48.954;9.474;2023-08-06T05:42:25;3.60;;;2.23;;
846;SDS011;410;48.954;9.474;2023-08-06T05:44:34;2.80;;;1.90;;
846;SDS011;410;48.954;9.474;2023-08-06T05:46:41;3.53;;;2.00;;
846;SDS011;410;48.954;9.474;2023-08-06T05:48:45;3.73;;;2.13;;
846;SDS011;410;48.954;9.474;2023-08-06T05:50:51;3.03;;;2.07;;
846;SDS011;410;48.954;9.474;2023-08-06T05:52:59;2.77;;;1.87;;
846;SDS011;410;48.954;9.474;2023-08-06T05:55:08;3.10;;;2.40;;
846;SDS011;410;48.954;9.474;2023-08-06T05:57:12;3.37;;;2.00;;
846;SDS011;410;48.954;9.474;2023-08-06T05:59:17;2.73;;;2.30;;
846;SDS011;410;48.954;9.474;2023-08-06T06:01:21;4.00;;;2.27;;
846;SDS011;410;48.954;9.474;2023-08-06T06:03:26;3.60;;;1.80;;
846;SDS011;410;48.954;9.474;2023-08-06T06:05:32;5.60;;;2.00;;
846;SDS011;410;48.954;9.474;2023-08-06T06:07:39;4.10;;;2.17;;
846;SDS011;410;48.954;9.474;2023-08-06T06:09:48;4.03;;;2.50;;
846;SDS011;410;48.954;9.474;2023-08-06T06:11:51;2.90;;;2.20;;
846;SDS011;410;48.954;9.474;2023-08-06T06:13:57;4.70;;;2.33;;
846;SDS011;410;48.954;9.474;2023-08-06T06:16:05;2.73;;;2.30;;
846;SDS011;410;48.954;9.474;2023-08-06T06:18:22;3.37;;;2.30;;
846;SDS011;410;48.954;9.474;2023-08-06T06:20:26;2.57;;;1.93;;
846;SDS011;410;48.954;9.474;2023-08-06T06:22:38;3.47;;;2.47;;
846;SDS011;410;48.954;9.474;2023-08-06T06:24:44;3.40;;;2.20;;
846;SDS011;410;48.954;9.474;2023-08-06T06:26:48;4.20;;;2.43;;
846;SDS011;410;48.954;9.474;2023-08-06T06:28:51;2.77;;;2.30;;
846;SDS011;410;48.954;9.474;2023-08-06T06:30:59;4.93;;;2.13;;
846;SDS011;410;48.954;9.474;2023-08-06T06:33:04;3.43;;;2.50;;
846;SDS011;410;48.954;9.474;2023-08-06T06:35:12;3.63;;;2.60;;
846;SDS011;410;48.954;9.474;2023-08-06T06:37:15;3.27;;;2.20;;
846;SDS011;410;48.954;9.474;2023-08-06T06:39:18;2.80;;;2.00;;
846;SDS011;410;48.954;9.474;2023-08-06T06:41:21;3.20;;;1.90;;
846;SDS011;410;48.954;9.474;2023-08-06T06:43:26;3.20;;;2.10;;
846;SDS011;410;48.954;9.474;2023-08-06T06:45:29;3.37;;;2.03;;
846;SDS011;410;48.954;9.474;2023-08-06T06:47:33;2.87;;;1.90;;
846;SDS011;410;48.954;9.474;2023-08-06T06:49:39;4.80;;;1.80;;
846;SDS011;410;48.954;9.474;2023-08-06T06:51:43;2.10;;;1.57;;
846;SDS011;410;48.954;9.474;2023-08-06T06:53:48;3.73;;;1.33;;
846;SDS011;410;48.954;9.474;2023-08-06T06:55:52;2.77;;;1.77;;
846;SDS011;410;48.954;9.474;2023-08-06T06:57:58;3.30;;;2.00;;
846;SDS011;410;48.954;9.474;2023-08-06T07:00:05;2.20;;;1.57;;
846;SDS011;410;48.954;9.474;2023-08-06T07:02:12;2.67;;;1.60;;
846;SDS011;410;48.954;9.474;2023-08-06T07:04:18;2.10;;;1.40;;
846;SDS011;410;48.954;9.474;2023-08-06T07:06:27;3.00;;;1.20;;
846;SDS011;410;48.954;9.474;2023-08-06T07:08:33;2.23;;;1.20;;
846;SDS011;410;48.954;9.474;2023-08-06T07:10:43;2.20;;;1.27;;
846;SDS011;410;48.954;9.474;2023-08-06T07:12:47;1.90;;;1.10;;
846;SDS011;410;48.954;9.474;2023-08-06T07:15:00;2.00;;;1.10;;
846;SDS011;410;48.954;9.474;2023-08-06T07:17:23;1.30;;;0.70;;
846;SDS011;410;48.954;9.474;2023-08-06T07:19:30;1.90;;;1.00;;
846;SDS011;410;48.954;9.474;2023-08-06T07:21:47;1.43;;;0.80;;
846;SDS011;410;48.954;9.474;2023-08-06T07:23:58;1.90;;;0.90;;
846;SDS011;410;48.954;9.474;2023-08-06T07:26:05;1.80;;;0.80;;
846;SDS011;410;48.954;9.474;2023-08-06T07:28:16;2.33;;;0.90;;
846;SDS011;410;48.954;9.474;2023-08-06T07:30:20;1.60;;;0.60;;
846;SDS011;410;48.954;9.474;2023-08-06T07:32:26;1.93;;;0.60;;
846;SDS011;410;48.954;9.474;2023-08-06T07:34:34;2.10;;;0.80;;
846;SDS011;410;48.954;9.474;2023-08-06T07:36:37;1.60;;;0.80;;
846;SDS011;410;48.954;9.474;2023-08-06T07:38:42;1.90;;;0.80;;
846;SDS011;410;48.954;9.474;2023-08-06T07:40:45;1.80;;;0.80;;
846;SDS011;410;48.954;9.474;2023-08-06T07:42:49;1.20;;;0.60;;
846;SDS011;410;48.954;9.474;2023-08-06T07:44:53;1.60;;;0.80;;
846;SDS011;410;48.954;9.474;2023-08-06T07:46:57;2.17;;;0.67;;
846;SDS011;410;48.954;9.474;2023-08-06T07:49:01;1.37;;;0.73;;
846;SDS011;410;48.954;9.474;2023-08-06T07:51:05;1.50;;;0.60;;
846;SDS011;410;48.954;9.474;2023-08-06T07:53:12;1.33;;;0.60;;
846;SDS011;410;48.954;9.474;2023-08-06T07:55:17;1.67;;;0.60;;
846;SDS011;410;48.954;9.474;2023-08-06T07:57:21;1.87;;;0.63;;
846;SDS011;410;48.954;9.474;2023-08-06T07:59:33;1.80;;;0.70;;
846;SDS011;410;48.954;9.474;2023-08-06T08:01:39;2.17;;;0.60;;
846;SDS011;410;48.954;9.474;2023-08-06T08:03:44;1.50;;;0.60;;
846;SDS011;410;48.954;9.474;2023-08-06T08:05:53;1.10;;;0.40;;
846;SDS011;410;48.954;9.474;2023-08-06T08:08:00;1.33;;;0.83;;
846;SDS011;410;48.954;9.474;2023-08-06T08:10:10;1.43;;;0.63;;
846;SDS011;410;48.954;9.474;2023-08-06T08:12:18;1.87;;;0.70;;
846;SDS011;410;48.954;9.474;2023-08-06T08:14:24;1.27;;;0.60;;
846;SDS011;410;48.954;9.474;2023-08-06T08:16:31;1.40;;;0.63;;
846;SDS011;410;48.954;9.474;2023-08-06T08:18:39;1.77;;;0.90;;
846;SDS011;410;48.954;9.474;2023-08-06T08:20:46;1.30;;;0.60;;
846;SDS011;410;48.954;9.474;2023-08-06T08:22:53;1.13;;;0.60;;
846;SDS011;410;48.954;9.474;2023-08-06T08:24:58;1.27;;;0.50;;
846;SDS011;410;48.954;9.474;2023-08-06T08:27:21;1.20;;;0.60;;
846;SDS011;410;48.954;9.474;2023-08-06T08:29:44;1.10;;;0.50;;
846;SDS011;410;48.954;9.474;2023-08-06T08:31:48;1.30;;;0.60;;
846;SDS011;410;48.954;9.474;2023-08-06T08:34:02;1.40;;;0.60;;
846;SDS011;410;48.954;9.474;2023-08-06T08:36:08;1.73;;;0.70;;
846;SDS011;410;48.954;9.474;2023-08-06T08:38:18;1.20;;;0.60;;
846;SDS011;410;48.954;9.474;2023-08-06T08:40:24;1.50;;;0.70;;
846;SDS011;410;48.954;9.474;2023-08-06T08:42:37;1.87;;;0.60;;
846;SDS011;410;48.954;9.474;2023-08-06T08:44:41;1.53;;;1.07;;
846;SDS011;410;48.954;9.474;2023-08-06T08:46:45;1.40;;;0.40;;
846;SDS011;410;48.954;9.474;2023-08-06T08:48:50;1.40;;;0.70;;
846;SDS011;410;48.954;9.474;2023-08-06T08:50:56;2.33;;;0.70;;
846;SDS011;410;48.954;9.474;2023-08-06T08:53:00;1.20;;;0.50;;
846;SDS011;410;48.954;9.474;2023-08-06T08:55:05;1.30;;;0.50;;
846;SDS011;410;48.954;9.474;2023-08-06T08:57:11;1.10;;;0.40;;
846;SDS011;410;48.954;9.474;2023-08-06T08:59:17;1.03;;;0.40;;
846;SDS011;410;48.954;9.474;2023-08-06T09:01:22;1.27;;;0.50;;
846;SDS011;410;48.954;9.474;2023-08-06T09:03:29;1.00;;;0.40;;
846;SDS011;410;48.954;9.474;2023-08-06T09:05:34;1.17;;;0.50;;
846;SDS011;410;48.954;9.474;2023-08-06T09:07:42;1.50;;;0.60;;
846;SDS011;410;48.954;9.474;2023-08-06T09:09:49;1.80;;;0.63;;
846;SDS011;410;48.954;9.474;2023-08-06T09:11:53;1.10;;;0.50;;
846;SDS011;410;48.954;9.474;2023-08-06T09:14:00;1.83;;;0.50;;
846;SDS011;410;48.954;9.474;2023-08-06T09:16:09;1.30;;;0.40;;
846;SDS011;410;48.954;9.474;2023-08-06T09:18:24;1.00;;;0.40;;
846;SDS011;410;48.954;9.474;2023-08-06T09:20:32;1.00;;;0.37;;
846;SDS011;410;48.954;9.474;2023-08-06T09:22:38;1.00;;;0.40;;
846;SDS011;410;48.954;9.474;2023-08-06T09:24:46;1.10;;;0.30;;
846;SDS011;410;48.954;9.474;2023-08-06T09:26:51;1.60;;;0.50;;
846;SDS011;410;48.954;9.474;2023-08-06T09:29:00;1.50;;;0.60;;
846;SDS011;410;48.954;9.474;2023-08-06T09:31:06;1.30;;;0.60;;
846;SDS011;410;48.954;9.474;2023-08-06T09:33:11;1.10;;;0.40;;
846;SDS011;410;48.954;9.474;2023-08-06T09:35:18;1.10;;;0.40;;
846;SDS011;410;48.954;9.474;2023-08-06T09:37:41;1.63;;;0.30;;
846;SDS011;410;48.954;9.474;2023-08-06T09:39:48;1.00;;;0.40;;
846;SDS011;410;48.954;9.474;2023-08-06T09:42:05;1.00;;;0.30;;
846;SDS011;410;48.954;9.474;2023-08-06T09:44:29;1.00;;;0.30;;
846;SDS011;410;48.954;9.474;2023-08-06T09:46:35;4.70;;;0.40;;
846;SDS011;410;48.954;9.474;2023-08-06T09:48:57;1.10;;;0.40;;
846;SDS011;410;48.954;9.474;2023-08-06T09:51:02;1.00;;;0.30;;
846;SDS011;410;48.954;9.474;2023-08-06T09:53:21;1.10;;;0.40;;
846;SDS011;410;48.954;9.474;2023-08-06T09:55:26;1.10;;;0.40;;
846;SDS011;410;48.954;9.474;2023-08-06T09:57:29;1.10;;;0.40;;
846;SDS011;410;48.954;9.474;2023-08-06T09:59:34;0.90;;;0.30;;
846;SDS011;410;48.954;9.474;2023-08-06T10:01:39;1.83;;;0.40;;
846;SDS011;410;48.954;9.474;2023-08-06T10:03:46;1.20;;;0.50;;
846;SDS011;410;48.954;9.474;2023-08-06T10:05:52;1.10;;;0.40;;
846;SDS011;410;48.954;9.474;2023-08-06T10:07:55;1.10;;;0.40;;
846;SDS011;410;48.954;9.474;2023-08-06T10:10:02;1.10;;;0.50;;
846;SDS011;410;48.954;9.474;2023-08-06T10:12:08;0.90;;;0.30;;
846;SDS011;410;48.954;9.474;2023-08-06T10:14:22;1.07;;;0.50;;
846;SDS011;410;48.954;9.474;2023-08-06T10:16:28;1.00;;;0.30;;
846;SDS011;410;48.954;9.474;2023-08-06T10:18:37;1.00;;;0.30;;
846;SDS011;410;48.954;9.474;2023-08-06T10:20:42;0.90;;;0.33;;
846;SDS011;410;48.954;9.474;2023-08-06T10:23:07;1.10;;;0.40;;
846;SDS011;410;48.954;9.474;2023-08-06T10:25:13;1.00;;;0.30;;
846;SDS011;410;48.954;9.474;2023-08-06T10:27:22;1.10;;;0.40;;
846;SDS011;410;48.954;9.474;2023-08-06T10:29:35;1.00;;;0.30;;
846;SDS011;410;48.954;9.474;2023-08-06T10:31:54;1.10;;;0.40;;
846;SDS011;410;48.954;9.474;2023-08-06T10:34:00;1.30;;;0.50;;
846;SDS011;410;48.954;9.474;2023-08-06T10:36:05;1.13;;;0.47;;
846;SDS011;410;48.954;9.474;2023-08-06T10:38:32;1.13;;;0.40;;
846;SDS011;410;48.954;9.474;2023-08-06T10:40:37;1.30;;;0.50;;
846;SDS011;410;48.954;9.474;2023-08-06T10:42:45;1.40;;;0.50;;
846;SDS011;410;48.954;9.474;2023-08-06T10:47:37;1.00;;;0.40;;
846;SDS011;410;48.954;9.474;2023-08-06T10:49:52;1.30;;;0.37;;
846;SDS011;410;48.954;9.474;2023-08-06T10:51:56;1.13;;;0.50;;
846;SDS011;410;48.954;9.474;2023-08-06T10:54:20;1.20;;;0.50;;
846;SDS011;410;48.954;9.474;2023-08-06T10:56:39;0.90;;;0.30;;
846;SDS011;410;48.954;9.474;2023-08-06T10:58:45;1.23;;;0.43;;
846;SDS011;410;48.954;9.474;2023-08-06T11:01:09;1.53;;;0.73;;
846;SDS011;410;48.954;9.474;2023-08-06T11:03:12;1.50;;;0.80;;
846;SDS011;410;48.954;9.474;2023-08-06T11:05:35;1.30;;;0.60;;
846;SDS011;410;48.954;9.474;2023-08-06T11:07:39;1.00;;;0.40;;
846;SDS011;410;48.954;9.474;2023-08-06T11:09:51;2.80;;;0.63;;
846;SDS011;410;48.954;9.474;2023-08-06T11:12:00;1.60;;;0.87;;
846;SDS011;410;48.954;9.474;2023-08-06T11:14:04;1.30;;;0.60;;
846;SDS011;410;48.954;9.474;2023-08-06T11:16:07;1.47;;;0.70;;
846;SDS011;410;48.954;9.474;2023-08-06T11:18:12;2.13;;;1.00;;
846;SDS011;410;48.954;9.474;2023-08-06T11:20:15;1.37;;;0.67;;
846;SDS011;410;48.954;9.474;2023-08-06T11:22:20;1.40;;;0.70;;
846;SDS011;410;48.954;9.474;2023-08-06T11:24:25;1.10;;;0.57;;
846;SDS011;410;48.954;9.474;2023-08-06T11:26:31;1.60;;;0.70;;
846;SDS011;410;48.954;9.474;2023-08-06T11:28:34;1.30;;;0.70;;
846;SDS011;410;48.954;9.474;2023-08-06T11:30:40;1.53;;;0.67;;
846;SDS011;410;48.954;9.474;2023-08-06T11:32:45;1.30;;;0.60;;
846;SDS011;410;48.954;9.474;2023-08-06T11:35:09;1.33;;;0.70;;
846;SDS011;410;48.954;9.474;2023-08-06T11:37:20;2.17;;;0.90;;
846;SDS011;410;48.954;9.474;2023-08-06T11:39:44;2.00;;;0.90;;
846;SDS011;410;48.954;9.474;2023-08-06T11:41:51;2.53;;;0.80;;
846;SDS011;410;48.954;9.474;2023-08-06T11:44:01;1.50;;;0.80;;
846;SDS011;410;48.954;9.474;2023-08-06T11:46:10;1.53;;;0.90;;
846;SDS011;410;48.954;9.474;2023-08-06T11:48:15;2.23;;;1.10;;
846;SDS011;410;48.954;9.474;2023-08-06T11:50:27;1.77;;;0.90;;
846;SDS011;410;48.954;9.474;2023-08-06T11:52:34;2.60;;;1.50;;
846;SDS011;410;48.954;9.474;2023-08-06T11:54:39;3.17;;;1.27;;
846;SDS011;410;48.954;9.474;2023-08-06T11:56:43;1.90;;;1.20;;
846;SDS011;410;48.954;9.474;2023-08-06T11:58:52;2.53;;;1.07;;
846;SDS011;410;48.954;9.474;2023-08-06T12:01:15;2.07;;;1.00;;
846;SDS011;410;48.954;9.474;2023-08-06T12:03:18;2.20;;;1.03;;
846;SDS011;410;48.954;9.474;2023-08-06T12:05:29;2.60;;;1.30;;
846;SDS011;410;48.954;9.474;2023-08-06T12:07:36;1.63;;;1.03;;
846;SDS011;410;48.954;9.474;2023-08-06T12:09:41;2.07;;;1.00;;
846;SDS011;410;48.954;9.474;2023-08-06T12:11:46;1.80;;;1.10;;
846;SDS011;410;48.954;9.474;2023-08-06T12:13:51;2.03;;;1.30;;
846;SDS011;410;48.954;9.474;2023-08-06T12:16:05;2.00;;;1.30;;
846;SDS011;410;48.954;9.474;2023-08-06T12:18:21;3.27;;;1.20;;
846;SDS011;410;48.954;9.474;2023-08-06T12:20:31;2.93;;;1.20;;
846;SDS011;410;48.954;9.474;2023-08-06T12:22:54;2.27;;;1.37;;
846;SDS011;410;48.954;9.474;2023-08-06T12:25:09;1.97;;;1.20;;
846;SDS011;410;48.954;9.474;2023-08-06T12:27:33;1.60;;;1.07;;
846;SDS011;410;48.954;9.474;2023-08-06T12:29:41;3.03;;;1.57;;
846;SDS011;410;48.954;9.474;2023-08-06T12:32:05;2.77;;;1.20;;
846;SDS011;410;48.954;9.474;2023-08-06T12:34:12;2.20;;;1.50;;
846;SDS011;410;48.954;9.474;2023-08-06T12:36:17;2.60;;;1.60;;
846;SDS011;410;48.954;9.474;2023-08-06T12:38:22;3.67;;;1.40;;
846;SDS011;410;48.954;9.474;2023-08-06T12:40:25;2.37;;;1.50;;
846;SDS011;410;48.954;9.474;2023-08-06T12:42:37;5.30;;;2.30;;
846;SDS011;410;48.954;9.474;2023-08-06T12:44:42;2.57;;;1.73;;
846;SDS011;410;48.954;9.474;2023-08-06T12:46:47;3.30;;;1.97;;
846;SDS011;410;48.954;9.474;2023-08-06T12:48:52;1.97;;;1.50;;
846;SDS011;410;48.954;9.474;2023-08-06T12:50:58;3.83;;;1.80;;
846;SDS011;410;48.954;9.474;2023-08-06T12:53:04;2.80;;;1.77;;
846;SDS011;410;48.954;9.474;2023-08-06T12:55:13;2.80;;;1.80;;
846;SDS011;410;48.954;9.474;2023-08-06T12:57:17;2.90;;;2.00;;
846;SDS011;410;48.954;9.474;2023-08-06T12:59:22;2.80;;;1.83;;
846;SDS011;410;48.954;9.474;2023-08-06T13:01:28;2.70;;;2.00;;
846;SDS011;410;48.954;9.474;2023-08-06T13:03:34;2.50;;;1.73;;
846;SDS011;410;48.954;9.474;2023-08-06T13:05:50;3.43;;;2.40;;
846;SDS011;410;48.954;9.474;2023-08-06T13:07:55;2.80;;;1.97;;
846;SDS011;410;48.954;9.474;2023-08-06T13:10:00;3.43;;;2.20;;
846;SDS011;410;48.954;9.474;2023-08-06T13:12:10;8.40;;;4.27;;
846;SDS011;410;48.954;9.474;2023-08-06T13:14:18;3.13;;;2.30;;
846;SDS011;410;48.954;9.474;2023-08-06T13:16:25;3.50;;;2.40;;
846;SDS011;410;48.954;9.474;2023-08-06T13:18:33;4.20;;;2.33;;
846;SDS011;410;48.954;9.474;2023-08-06T13:20:37;6.93;;;2.20;;
846;SDS011;410;48.954;9.474;2023-08-06T13:22:49;4.83;;;2.90;;
846;SDS011;410;48.954;9.474;2023-08-06T13:24:57;3.37;;;1.90;;
846;SDS011;410;48.954;9.474;2023-08-06T13:27:01;3.57;;;2.60;;
846;SDS011;410;48.954;9.474;2023-08-06T13:29:25;3.53;;;2.30;;
846;SDS011;410;48.954;9.474;2023-08-06T13:31:29;2.97;;;1.77;;
846;SDS011;410;48.954;9.474;2023-08-06T13:33:54;5.63;;;2.00;;
846;SDS011;410;48.954;9.474;2023-08-06T13:36:00;2.83;;;1.87;;
846;SDS011;410;48.954;9.474;2023-08-06T13:38:23;4.17;;;1.70;;
846;SDS011;410;48.954;9.474;2023-08-06T13:40:33;2.83;;;1.90;;
846;SDS011;410;48.954;9.474;2023-08-06T13:42:53;2.47;;;1.50;;
846;SDS011;410;48.954;9.474;2023-08-06T13:44:57;3.10;;;1.73;;